Espace membre
Imprimable
Challenges > Delhalle - Bousval, 05/03/2017, BEL - Le Cross de Bousval
Liste des rapports > Delhalle - 15km - Classement
Recherche: Page: [1]
133 Entrées
 
Les réclamations ne sont plus acceptées, les résultats sont considérés comme définitifs.
Catégorie
PosNrNomAgeIOCLigueEquipeRéelTempsTkmMoy.RangNomScrPtsLocalité
1.5VANDROOGENBROECK VIRGINIE46BELCABWTRAINING 71:00:151:00:154:01 14.941ai135910BRAINE-L'ALLEUD
2.1233LEROY VALERIE43BELJOGGPLUS1:01:031:01:044:05 14.742ai141893
3.63LORIAUX EMILIE33BELESMTRAKKS1:05:151:05:164:22 13.791dam77807THUILLIES
4.17DESILLE NICOLE50BELRIWARIWA1:05:311:05:414:23 13.701ai284798LA HULPE
5.798DEBONI MALORIE33BELMYSTERE1:05:481:05:494:24 13.672dam86793UCCLE
6.852WILLEKENS MARIJKE54BELDCLATRAINING 71:08:141:08:154:33 13.192ai2112742LINDEN
7.390GERARDIN BÉATRICE47FRACHIMAY TRAIL AVENTUR1:09:401:09:424:39 12.913ai1137706CHARLEVILLE-MÉZIÈRES
8.209DE GREVE GEERTRUI42BEL1:10:011:10:034:41 12.854ai1141699EREMBODEGEM
9.1490BELABBES ANGELIQUE43BELCEPALCEPAL1:10:231:10:284:42 12.775ai1152687
10.896GODFROID LUCIE21BELUSBWMYSTERE1:10:561:11:024:45 12.673dam160675WATERLOO
11.907THIRY MARIE35BELRCNAMUR JOGGING PLUS1:10:591:11:024:45 12.674dam161673NANINNE
12.1220LEMBOURG ISABELLE28BELUAC1:12:151:12:224:50 12.445dam172649
13.644DUJACQUIER MAGALI42BELCABWTRAKKS1:12:261:12:394:51 12.396ai1176644MONT-SUR-MARCHIENNE
14.3607VAN HAUTE PAULINE24BELJC INCOURT1:12:331:13:024:53 12.336dam181640BRUXELLES
15.466DEMOULIN BRIGITTE57BELRCNAMUR1:13:031:13:084:53 12.313ai2182632LUSTIN
16.213BERGHEZAN MARIE-CHRISTINE53BELUSBWMYSTERE1:13:431:13:474:56 12.204ai2191618MARCHE LEZ ECAUSSINNES
17.1434BAIX CORINNE36BELCÉPAL1:13:461:14:004:56 12.167dam192617
18.1437ROBERTI DAPHNE41BELRCNMOTIVE DE METTET1:14:361:14:434:59 12.057ai1201600
19.1493LEONARD ANNE48BEL1:14:501:14:535:00 12.028ai1206594
20.3633VERHAEGHE SOPHIE38BEL1:15:001:15:225:02 11.948dam208591BAISY-THY
21.3654DE WOOT ANTOINETTE53BELESM1:15:161:15:295:02 11.925ai2212585MARCHIENNE AU PONT
22.3674PATERNOSTRE STÉPHANIE37BELJCPMF GENAPPE1:15:531:15:555:04 11.869dam219573BOUSVAL
23.3714DI MEO MARIA RITA41BELRCB1:15:561:16:035:05 11.839ai1223570BRUXELLES
24.340MEDAETS ALIZEE23BELCSFET ENGHIEN1:16:321:16:335:07 11.7610dam235554ENGHIEN
25.331GODFROID YAEL17BELMYSTERE1:16:311:16:425:07 11.731esf236554WATERLOO
26.3628DHAUSSY LAURENCE37BELARCH1:18:201:18:265:14 11.4811dam257518CINEY
27.102SCHIETS MAGALI39BELMYSTERE1:18:181:18:285:14 11.4712dam261516BRUXELLES
28.3619WILMART VALÉRIE38BEL1:18:381:18:495:16 11.4213dam265510BLANMONT
29.211COOREMANS VÉRO48BELOCAN1:18:381:18:505:16 11.4210ai1266509LEUZE
30.1020DARDENNE MURIELLE39BELSPTW1:19:521:20:205:22 11.2014dam279486
31.502AERTS CATHLYNE54BELJOGGANS1:20:161:20:345:23 11.176ai2282479BRUXELLES
32.3651HENRY MANON23BELRCB1:20:171:20:415:23 11.1615dam288475LA HULPE
33.119HUBERT ANNABEL46BELLES MOTIVES DE METTET1:20:531:20:595:24 11.1111ai1294465DENEE
34.1026SIMON FLORENCE46BEL1:20:501:21:045:25 11.1012ai1295464
35.287JULIEN STÉPHANIE42BELRCNAMUR1:21:281:21:415:27 11.0213ai1299454NAMUR
36.1453VLAEMMINCK-DECOMBELE LAETITIA22BEL1:21:221:21:455:27 11.0116dam303453
37.3721TROUPIN CÉCILE43BELJCHSH1:21:461:22:085:29 10.9614ai1309445GERPINNES
38.1234DEWILDE DELPHINE36BELO RUN1:21:541:22:115:29 10.9517dam310443
39.1012GILQUIN CINDY37BEL1:22:181:22:325:31 10.9018dam315435
40.468DEMIN LIEVE50BELMYSTERE1:23:021:23:145:33 10.817ai2321422BRUXELLES
41.200CORNET ANNE51BELFLEU1:23:381:23:575:36 10.728ai2323414JEMEPPE SUR SAMBRE
42.1229DELVAL KATHLEEN35BEL1:23:311:24:165:38 10.6819dam326414
43.3610DENIS NATHALIE54BELRCNAMUR1:23:521:24:205:38 10.679ai2328408LESVE
44.36MESSAOUDI NADIA30BELMYSTERE1:24:201:24:275:38 10.6620dam332401BRUXELLES
45.369HUBER REGINA50DEUENJAMBEE1:24:091:24:285:38 10.6610ai2333402WOLUWE SAINT PIERRE
46.575VAN WEDDINGEN ANNE54BELCSFMYSTERE1:24:351:24:475:40 10.6211ai2338394BRUXELLES
47.1440VAN HOUTTE ANNE SOPHIE55BEL1:24:431:25:195:42 10.5512ai2343389BOUSVAL
48.3618MINET JULIE27BELRCNAMUR1:24:481:25:205:42 10.5521dam346387DAVE
49.1225VERHAEGHE ALINE34BEL1:25:001:25:255:42 10.5422dam348383
50.1476LECUIVRE CORINNE42BELKURISTOKURISTO1:25:081:25:265:42 10.5415ai1349381
51.1213BROGNIEZ NADEGE31BEL1:25:081:25:265:42 10.5323dam350380
52.1418MARCHAL MARIE-ANNE60BEL1:25:371:25:525:44 10.481ai3353373
53.686LIGNY CAROLINE56BELCSFMYSTERE1:26:021:26:125:45 10.4413ai2355367BRUXELLES
54.112DAELMAN LOUISE21BELMYSTERE1:26:031:26:125:45 10.4424dam356366UCCLE
55.442KOLP VIRGINIE36BELET ENGHIEN1:26:231:26:285:46 10.4125dam359360BRAINE-LE-COMTE
56.1439VILAIN CHRISTIANE72BEL1:26:161:26:305:46 10.411ai4360361
57.879GEERAERTS MAGALI29BELCSFMYSTERE1:26:331:26:505:48 10.3726dam362357BUIZINGEN
58.1224ARNOULD SYLIVIE41BELRCNAMUR1:26:431:27:015:49 10.3416ai1364354
59.214HANUISE CHRISTEL41BELETCHIEVR1:26:291:27:055:49 10.3417ai1367354ATH
60.120DE BRUYNE ANNE50BELLDLV1:27:061:27:095:49 10.3314ai2373344WEMMEL
61.552DEMAIN CORINNE50BELFLEULA THURE1:26:561:27:175:50 10.3115ai2375344FONTAINE L'ÉVÊQUE
62.3630MILLET EMILIE25BEL1:26:521:27:205:50 10.3127dam376345COURT-SAINT-ETIENNE
63.919BORCEUX PAULINE30BELRCNAMUR1:26:581:27:275:50 10.2928dam377343GRAPFONTAINE
64.391VAUSE FABIENNE52BELRCNAMUR1:27:241:27:375:51 10.2716ai2380336MALONNE
65.1013SCOUPE NANOU47BELTRIKV1:27:331:27:565:52 10.2418ai1384332
66.149JERKOVIC LYDIE38BELCSFMYSTERE1:27:521:28:025:53 10.2329dam386328UCCLE
67.3643DE REUCK FANNY40BELMYSTERE1:28:141:28:255:54 10.1819ai1389322BRUXELLES
68.509ALEXIS KRISTEL45BELRCNAMUR1:28:001:28:325:55 10.1720ai1392322PROFONDEVILLE
69.315WAUTHIER SANDRA44BELJOGGANS1:28:421:29:205:58 10.0821ai1401309SINT-PIETERS-LEEUW
70.600DARDENNE STÉPHANIE35BELSPTWAVRE1:29:081:29:375:59 10.0430dam404302PERWEZ
71.967URBAIN GINETTE65BELSPIBO1:29:331:29:425:59 10.032ai3405297BELLIGNIES
72.3695ROSE MYRIAM56BEL1:29:451:30:076:01 9.9917ai2408293SART DAMES AVELINES
73.186HILLEN HILDE49BELAVN1:30:401:31:056:05 9.8822ai1416278MEER
74.76MORRIS NICOLA-ELIZABETH57BELENJAMBEE1:30:571:31:166:06 9.8618ai2418274BRUXELLES
75.405DETRIXHE JEHANNE48BELJACO1:30:571:31:226:06 9.8523ai1419273COUVIN
76.297DUSSART DELPHINE44BELJACO1:30:571:31:236:06 9.8524ai1420273CHIMAY
77.1479CHAUVIN SARAH39BELBAISEDOF RUNNING TEAM1:30:461:31:256:06 9.8531dam421274
78.163FADEUR BÉATRICE49BELSMAC1:31:201:31:276:06 9.8425ai1423267BOIS DE VILLERS
79.366LANSLOTS VIVIANE52BELAVN1:31:381:32:046:09 9.7819ai2426262MERKSPLAS
80.1477SERRE HEIDI54BELJAMES1:32:181:32:386:11 9.7220ai2428254
81.3693MARIEN ANNE-SOPHIE34BELJCPMF1:32:051:32:396:11 9.7232dam429256LIGNY
82.3676MIKKELSEN DALIA59BELKURISTO1:32:321:32:516:12 9.6921ai2430250NIL-SAINT-VINCENT
83.1486DUPLAT FRANCOISE40BELJAMES1:32:541:33:076:13 9.6726ai1432245
84.3635LOSSEAU CLAIRE38BEL1:33:211:33:326:15 9.6233dam435239MALÈVES-SAINTE-MARIE
85.269SLIWINSKI VIVIANE60BELLES MOTIVES DE METTET1:33:311:33:446:15 9.603ai3437236SAINT-MARTIN
86.362SAUVEGARDE ANNE-PASCALE49BELSPTWAVRE1:33:121:33:486:16 9.6027ai1440237COURT-ST-ETIENNE
87.3605FOSTER HILDA69BELOEH1:33:171:33:506:16 9.594ai3442235HALLE
88.1430CROONENBORGHS ANNICK53BELJCPMF GENAPPE1:33:371:33:566:16 9.5822ai2443231WAYS
89.174BAWIN BRIGITTE64BELJAMES1:33:531:34:126:17 9.555ai3445227BOUSVAL
90.1472FRANCE CHARLOTTE35BEL1:33:491:34:236:18 9.5434dam447226
91.384SCHELDEWAERT GILBERTE61BEL1:34:421:34:536:20 9.496ai3450215SINT-AMANDSBERG
92.826LAMERANT CHANTAL53BELOXYGENE1:34:571:35:116:21 9.4623ai2451212BIERCEE
93.84HAUWEL CELINE37BELJACO1:37:011:37:256:30 9.2435dam462185SAINT-REMY
94.1433FLEURY ANNIE57BELJACO1:36:591:37:256:30 9.2424ai2463184
95.3668GLINEUR ORIANNE29BELRCNAMUR1:37:131:37:426:31 9.2136dam466180ERPENT
96.1237HOUDART GENEVIEVE44BELJAMES1:37:381:37:576:32 9.1928ai1467175
97.817DUBOIS BERTHE64BELBOUFFIOLS1:39:311:39:476:40 9.027ai3472154FALISOLLE
98.3631MANDEVILLE-HAMMER KIANA42USA1:39:241:39:536:40 9.0129ai1473154BOUSVAL
99.358MATTHIEU FABIENNE52BELENJAMBEE1:39:391:40:026:41 9.0025ai2474151BRUXELLES
100.1425DE BERDT PATRICIA59BELSPTW1:39:531:40:206:42 8.9726ai2479146
101.1218HANS MAURINE23BELJAMES1:39:541:40:246:42 8.9737dam480145
102.572TALLIER JEANNY63BELRCNAMUR1:40:061:40:366:43 8.958ai3481143FLAWINNE
103.62TROIA GIOVANNA51BELENJAMBEE1:40:341:40:576:44 8.9227ai2484136UCCLE
104.790SPARKS MARTY61BELSPIBO1:40:441:41:166:46 8.899ai3487133MONS
105.1488DUPLAT ANNE40BEL1:41:121:41:246:46 8.8830ai1488128
106.881HOURMAN GWENDOLINE50BELENJAMBEE1:41:371:41:506:48 8.8428ai2491122TERVUREN
107.3684LORIDAN BRIGITTE55BELBRIGITUSBW1:41:231:41:556:48 8.8329ai2492124BRAINE L'ALLEUD
108.3604VILLÉ HILDE51BELOEH1:42:031:42:376:51 8.7730ai2495115HALLE
109.1415TAVERNE VERONIQUE51BELENJAMBE1:42:211:42:436:51 8.7631ai2496112
110.7HENNERESSE ISABELLE47BELJOGGANS1:42:401:43:136:53 8.7231ai1499107GEDINNE
111.3673FEROLA MARIA37ITAACLO1:43:451:44:176:58 8.6338dam50096PÉRONNES-LEZ-BINCHE
112.918CAT CARINE43BELACLO1:43:461:44:176:58 8.6332ai150196HOUDENG-AIMERIES
113.928VAN WYMERSCH SABINE51BELCSFMYSTERE1:44:291:44:416:59 8.6032ai250288DROGENBOS
114.3648PAPAIANNI SANDRA55BEL1:44:401:44:456:59 8.5933ai250386BRUXELLES
115.3647DUBUISSON BRIGITTE55BEL1:44:491:44:537:00 8.5834ai250484RIXENSART
116.450PIRLOT ANNICK46BELUSBWUSBW1:44:431:45:157:01 8.5533ai150584BRAINE L'ALLEUD
117.311EVRARD JOSIANNE59BELRIWA1:45:011:45:267:02 8.5435ai250681BIERGES
118.3725GRANDMONT ANITA50NLDJCPMF GENAPPE1:45:061:45:277:02 8.5436ai250779BOUSVAL
119.3626DANCOT SOPHIE45BELCLEM'S TEAM1:45:281:47:027:09 8.4134ai150975BOUSVAL
120.1428MATHIEU CAROLINE41BELSPTW1:46:351:47:047:09 8.4135ai151064
121.618DARDENNE CAROLE44BELSPTWAVRE1:46:361:47:057:09 8.4036ai151163MONT-SAINT-GUIBERT
122.728PETREMENT FABIENNE51BELTEAM MARCEL1:47:471:48:227:14 8.3137ai251451ANDENNE
123.3681MAGIS CHANTAL47BEL1:48:081:48:367:15 8.2937ai151547LOUVAIN-LA-NEUVE
124.96BAUVIR ISABELLE46BEL1:48:211:48:497:16 8.2738ai151744ARVILLE
125.1470VAN POUCKE VALERIE39BEL1:48:151:48:497:16 8.2739dam51844
126.3614PLAISANT CHARLOTTE26BELCSF1:50:411:50:497:24 8.1240dam52121BRUXELLES
127.3622SCHEPMAN MARIE-HÉLÈNE51BELCLEM'S TEAM1:49:421:52:117:29 8.0238ai252328ERE
128.1249DE RIBAUCOURT SABINE37BEL1:54:231:54:387:39 7.8541dam5284
129.179ROUSSEAUX AGNÈS48BEL1:54:361:55:077:41 7.8239ai15313GODINNE
130.3621VERDONCK EMILIE22BELCLEM'S TEAM2:16:582:21:419:27 6.3542dam5341ERE
DNF1018BURLET VERONIQUE52BELJCPMFai2
DNF3642DAVENPORT NICOLA41GBRRCBai1BRUSSELS
DNF222PEREIRA OLINDA45BELUSBWUSBWai1BRAINE-L'ALLEUD
DNF: abandon; DSQ: disqualifié; Vitesse en km/h
Page: [1]